Time;durP1;ratioP1;P1;durP2;ratioP2;P2;SDS_P1;SDS_P2;PMS_P1;PMS_P2;Temp;Humidity;BMP_temperature;BMP_pressure;BME280_temperature;BME280_humidity;BME280_pressure;Samples;Min_cycle;Max_cycle;Signal;HPM_P1;HPM_P2
2023/10/29 00:00:08;;;;;;;6.72;4.05;;;10.80;99.90;;;;;;4965755;28;20043;-70
2023/10/29 00:02:33;;;;;;;10.80;4.30;;;10.80;99.90;;;;;;4964146;28;20532;-69
2023/10/29 00:04:59;;;;;;;7.57;4.25;;;10.80;99.90;;;;;;4963295;28;20043;-70
2023/10/29 00:07:24;;;;;;;8.02;3.53;;;10.80;99.90;;;;;;4944767;28;20126;-70
2023/10/29 00:09:50;;;;;;;5.60;3.90;;;10.80;99.90;;;;;;4965855;28;20050;-73
2023/10/29 00:12:16;;;;;;;4.82;2.72;;;10.80;99.90;;;;;;4948590;28;20138;-71
2023/10/29 00:14:41;;;;;;;7.03;3.30;;;10.90;99.90;;;;;;4963992;28;20691;-72
2023/10/29 00:17:07;;;;;;;6.68;3.40;;;10.80;99.90;;;;;;4947530;28;20420;-71
2023/10/29 00:19:34;;;;;;;7.70;3.38;;;11.10;99.90;;;;;;4965491;28;20151;-71
2023/10/29 00:21:59;;;;;;;7.90;3.63;;;10.80;99.90;;;;;;4962118;28;20094;-72
2023/10/29 00:24:25;;;;;;;6.03;3.65;;;10.90;99.90;;;;;;4962294;28;20086;-71
2023/10/29 00:26:51;;;;;;;4.93;3.10;;;10.90;99.90;;;;;;4963382;28;20050;-72
2023/10/29 00:29:16;;;;;;;6.65;3.40;;;10.80;99.90;;;;;;4962545;28;20047;-70
2023/10/29 00:31:42;;;;;;;6.10;2.95;;;10.90;99.90;;;;;;4961972;28;20027;-70
2023/10/29 00:34:07;;;;;;;5.38;3.10;;;10.90;99.90;;;;;;4946974;28;20533;-70
2023/10/29 00:36:33;;;;;;;6.75;3.05;;;11.10;99.90;;;;;;4965524;28;20043;-72
2023/10/29 00:38:59;;;;;;;3.67;2.70;;;11.00;99.90;;;;;;4963492;28;20500;-68
2023/10/29 00:41:25;;;;;;;7.53;3.22;;;11.00;99.90;;;;;;4962144;28;20051;-75
2023/10/29 00:43:51;;;;;;;8.52;3.20;;;11.00;99.90;;;;;;4962161;28;20049;-71
2023/10/29 00:46:17;;;;;;;5.53;3.58;;;11.00;99.90;;;;;;4963487;28;20126;-72
2023/10/29 00:48:43;;;;;;;4.03;3.15;;;10.90;99.90;;;;;;4943646;29;20134;-71
2023/10/29 00:51:09;;;;;;;5.68;3.50;;;11.00;99.90;;;;;;4962355;28;20050;-70
2023/10/29 00:53:35;;;;;;;5.57;3.28;;;11.10;99.90;;;;;;4964836;28;20042;-73
2023/10/29 00:56:01;;;;;;;4.80;3.28;;;11.00;99.90;;;;;;4965031;28;20043;-69
2023/10/29 00:58:27;;;;;;;5.68;3.42;;;11.00;99.90;;;;;;4962989;28;20409;-70
2023/10/29 01:00:53;;;;;;;4.43;2.70;;;11.10;99.90;;;;;;4961143;28;20394;-70
2023/10/29 01:03:19;;;;;;;4.45;2.88;;;11.10;99.90;;;;;;4961459;28;20047;-69
2023/10/29 01:05:46;;;;;;;5.68;2.80;;;11.10;99.90;;;;;;4964610;28;20113;-71
2023/10/29 01:08:12;;;;;;;4.38;2.90;;;11.20;99.90;;;;;;4947385;28;20051;-72
2023/10/29 01:10:38;;;;;;;5.60;2.90;;;11.20;99.90;;;;;;4956934;28;20082;-71
2023/10/29 01:13:04;;;;;;;5.25;3.00;;;11.20;99.90;;;;;;4947422;28;20047;-73
2023/10/29 01:15:30;;;;;;;4.47;2.97;;;11.20;99.90;;;;;;4964562;28;20434;-73
2023/10/29 01:17:56;;;;;;;4.00;2.90;;;11.30;99.90;;;;;;4943879;28;20049;-73
2023/10/29 01:20:22;;;;;;;4.90;3.28;;;11.50;99.90;;;;;;4961019;28;20051;-72
2023/10/29 01:22:48;;;;;;;5.20;2.83;;;11.20;99.90;;;;;;4965625;28;20062;-71
2023/10/29 01:25:13;;;;;;;5.13;3.20;;;11.40;99.90;;;;;;4961461;28;20352;-70
2023/10/29 01:27:39;;;;;;;4.00;2.80;;;11.30;99.90;;;;;;4961352;28;20054;-70
2023/10/29 01:30:06;;;;;;;6.30;3.30;;;11.60;99.90;;;;;;4946714;28;20086;-71
2023/10/29 01:32:32;;;;;;;5.68;3.53;;;11.30;99.90;;;;;;4963693;28;20078;-69
2023/10/29 01:34:58;;;;;;;4.57;3.28;;;11.40;99.90;;;;;;4962975;28;20046;-70
2023/10/29 01:37:24;;;;;;;6.55;3.33;;;11.40;99.90;;;;;;4961576;28;20039;-74
2023/10/29 01:39:49;;;;;;;4.88;3.30;;;11.40;99.90;;;;;;4943745;29;20046;-70
2023/10/29 01:42:15;;;;;;;6.57;3.50;;;11.40;99.90;;;;;;4962920;28;20047;-72
2023/10/29 01:44:41;;;;;;;8.02;3.28;;;11.50;99.90;;;;;;4963883;28;20038;-74
2023/10/29 01:47:06;;;;;;;6.65;3.28;;;11.50;99.90;;;;;;4963239;28;20043;-70
2023/10/29 01:49:33;;;;;;;4.93;3.05;;;11.70;99.90;;;;;;4960103;28;20039;-72
2023/10/29 01:51:59;;;;;;;7.15;3.70;;;11.70;99.90;;;;;;4943187;29;20066;-70
2023/10/29 01:54:25;;;;;;;8.63;3.47;;;11.60;99.90;;;;;;4960764;28;20046;-70
2023/10/29 01:56:50;;;;;;;4.20;3.30;;;11.80;99.90;;;;;;4943603;29;20051;-69
2023/10/29 01:59:16;;;;;;;6.68;4.03;;;11.60;99.90;;;;;;4960939;28;20054;-71
2023/10/29 02:01:42;;;;;;;4.85;3.60;;;11.70;99.90;;;;;;4946418;28;20038;-74
2023/10/29 02:04:09;;;;;;;6.32;3.70;;;11.80;99.90;;;;;;4946036;28;20055;-74
2023/10/29 02:06:41;;;;;;;10.70;3.40;;;11.70;99.90;;;;;;4961649;28;20038;-72
2023/10/29 02:09:10;;;;;;;6.22;3.83;;;11.70;99.90;;;;;;4960807;28;20047;-72
2023/10/29 02:11:39;;;;;;;9.15;3.70;;;11.90;99.90;;;;;;4961623;28;20051;-72
2023/10/29 02:14:07;;;;;;;5.05;2.92;;;11.80;99.90;;;;;;4958550;28;20545;-70
2023/10/29 02:16:33;;;;;;;5.18;2.95;;;11.90;99.90;;;;;;4946296;28;20050;-72
2023/10/29 02:18:59;;;;;;;9.60;3.00;;;11.90;99.90;;;;;;4960243;28;20043;-72
2023/10/29 02:21:25;;;;;;;5.10;2.60;;;11.90;99.90;;;;;;4960406;28;20166;-72
2023/10/29 02:23:52;;;;;;;5.85;2.80;;;12.10;99.90;;;;;;4962064;28;20055;-72
2023/10/29 02:26:18;;;;;;;5.28;2.60;;;12.10;99.90;;;;;;4962024;28;20054;-74
2023/10/29 02:28:44;;;;;;;4.53;2.30;;;11.90;99.90;;;;;;4942965;28;20047;-72
2023/10/29 02:31:29;;;;;;;7.85;2.50;;;12.00;99.90;;;;;;4945987;28;20169;-70
2023/10/29 02:33:55;;;;;;;5.28;2.22;;;12.10;99.90;;;;;;4961466;28;20133;-71
2023/10/29 02:36:21;;;;;;;6.97;2.35;;;12.10;99.90;;;;;;4955895;28;20074;-72
2023/10/29 02:38:46;;;;;;;4.97;2.17;;;12.00;99.90;;;;;;4946083;28;20046;-71
2023/10/29 02:41:12;;;;;;;5.90;2.08;;;12.10;99.90;;;;;;4960604;28;20553;-74
2023/10/29 02:43:41;;;;;;;5.45;2.28;;;12.10;99.90;;;;;;4960097;28;20035;-72
2023/10/29 02:46:06;;;;;;;7.95;2.20;;;12.20;99.90;;;;;;4960302;28;20613;-71
2023/10/29 02:48:32;;;;;;;7.28;2.00;;;12.10;99.90;;;;;;4962821;28;20054;-72
2023/10/29 02:50:58;;;;;;;6.72;1.95;;;12.10;99.90;;;;;;4945258;28;20130;-71
2023/10/29 02:53:23;;;;;;;8.75;2.22;;;12.20;99.90;;;;;;4957530;28;20102;-73
2023/10/29 02:55:49;;;;;;;5.40;2.08;;;12.20;99.90;;;;;;4962980;28;20043;-70
2023/10/29 02:58:14;;;;;;;5.60;2.00;;;12.10;99.90;;;;;;4945109;28;20129;-70
2023/10/29 03:00:40;;;;;;;6.75;1.85;;;12.20;99.90;;;;;;4959487;28;20134;-73
2023/10/29 03:03:06;;;;;;;4.07;1.70;;;12.10;99.90;;;;;;4942286;29;20110;-71
2023/10/29 03:05:32;;;;;;;4.50;1.80;;;12.20;99.90;;;;;;4959194;28;20513;-72
2023/10/29 03:07:59;;;;;;;7.05;1.73;;;12.10;99.90;;;;;;4959774;28;20135;-70
2023/10/29 03:10:25;;;;;;;5.70;1.63;;;12.20;99.90;;;;;;4942463;28;20142;-73
2023/10/29 03:12:51;;;;;;;5.32;1.58;;;12.10;99.90;;;;;;4945521;28;20043;-74
2023/10/29 03:15:17;;;;;;;5.50;1.95;;;12.10;99.90;;;;;;4962297;28;20094;-70
2023/10/29 03:17:43;;;;;;;4.32;1.60;;;12.10;99.90;;;;;;4944199;28;20055;-72
2023/10/29 03:20:09;;;;;;;7.65;1.80;;;12.20;99.90;;;;;;4959324;28;20523;-72
2023/10/29 03:22:35;;;;;;;5.30;1.65;;;12.20;99.90;;;;;;4960499;28;20142;-70
2023/10/29 03:25:00;;;;;;;7.38;1.73;;;12.10;99.90;;;;;;4959696;28;20127;-73
2023/10/29 03:27:26;;;;;;;4.57;1.75;;;12.20;99.90;;;;;;4959485;28;20559;-71
2023/10/29 03:29:53;;;;;;;5.07;1.60;;;12.20;99.90;;;;;;4960402;28;20491;-74
2023/10/29 03:32:18;;;;;;;4.50;1.20;;;12.20;99.90;;;;;;4944967;28;20054;-74
2023/10/29 03:34:44;;;;;;;3.40;1.48;;;12.20;99.90;;;;;;4962446;28;20130;-71
2023/10/29 03:37:09;;;;;;;3.53;1.17;;;12.20;99.90;;;;;;4959818;28;20112;-70
2023/10/29 03:39:35;;;;;;;3.33;1.27;;;12.20;99.90;;;;;;4959804;28;20426;-71
2023/10/29 03:42:02;;;;;;;5.07;1.23;;;12.20;99.90;;;;;;4959784;28;20055;-76
2023/10/29 03:44:28;;;;;;;3.40;1.00;;;12.20;99.90;;;;;;4959776;28;20047;-72
2023/10/29 03:46:53;;;;;;;2.80;1.17;;;12.20;99.90;;;;;;4959745;28;20502;-73
2023/10/29 03:49:19;;;;;;;4.65;1.20;;;12.20;99.90;;;;;;4961448;28;20067;-73
2023/10/29 03:51:48;;;;;;;4.05;0.90;;;12.20;99.90;;;;;;4962471;28;20047;-70
2023/10/29 03:54:14;;;;;;;2.55;1.10;;;12.20;99.90;;;;;;4961172;28;20043;-72
2023/10/29 03:56:39;;;;;;;3.88;1.15;;;12.40;99.90;;;;;;4959218;28;20043;-70
2023/10/29 03:59:05;;;;;;;3.63;1.17;;;12.30;99.90;;;;;;4959167;28;20126;-72
2023/10/29 04:01:31;;;;;;;3.92;1.27;;;12.40;99.90;;;;;;4960981;28;20126;-74
2023/10/29 04:03:58;;;;;;;5.40;1.10;;;12.30;99.90;;;;;;4928334;28;20201;-73
2023/10/29 04:06:24;;;;;;;4.63;0.85;;;12.30;99.90;;;;;;4961795;28;20047;-73
2023/10/29 04:08:49;;;;;;;2.17;1.10;;;12.30;99.90;;;;;;4955691;28;20055;-70
2023/10/29 04:11:15;;;;;;;3.47;1.10;;;12.40;99.90;;;;;;4959548;28;20061;-70
2023/10/29 04:13:41;;;;;;;4.00;0.90;;;12.40;99.90;;;;;;4943621;28;20047;-69
2023/10/29 04:16:06;;;;;;;3.97;1.00;;;12.30;99.90;;;;;;4961382;28;20038;-69
2023/10/29 04:18:33;;;;;;;3.95;1.15;;;12.40;99.90;;;;;;4928007;28;20145;-71
2023/10/29 04:21:02;;;;;;;2.65;1.00;;;12.40;99.90;;;;;;4962640;28;20062;-72
2023/10/29 04:23:29;;;;;;;3.20;1.00;;;12.50;99.90;;;;;;4924705;28;20057;-70
2023/10/29 04:25:55;;;;;;;3.75;0.70;;;12.50;99.90;;;;;;4965555;28;20118;-72
2023/10/29 04:28:20;;;;;;;3.30;1.15;;;12.60;99.90;;;;;;4944870;29;20063;-69
2023/10/29 04:30:46;;;;;;;8.43;0.90;;;12.70;99.90;;;;;;4962489;28;20047;-71
2023/10/29 04:33:12;;;;;;;1.65;0.60;;;12.70;99.90;;;;;;4966935;28;20050;-76
2023/10/29 04:35:38;;;;;;;3.35;0.57;;;12.60;99.90;;;;;;4963027;28;20518;-72
2023/10/29 04:38:04;;;;;;;2.53;0.60;;;12.70;99.90;;;;;;4961214;28;20395;-72
2023/10/29 04:40:29;;;;;;;1.98;0.50;;;12.70;99.90;;;;;;4962173;28;20769;-71
2023/10/29 04:42:55;;;;;;;3.38;0.50;;;12.40;99.90;;;;;;4962733;28;20097;-71
2023/10/29 04:45:21;;;;;;;4.45;0.60;;;12.60;99.90;;;;;;4962095;28;20071;-72
2023/10/29 04:47:46;;;;;;;1.48;0.50;;;12.40;99.90;;;;;;4962118;28;20612;-72
2023/10/29 04:50:12;;;;;;;1.55;0.45;;;12.30;99.90;;;;;;4963321;28;20118;-70
2023/10/29 04:52:38;;;;;;;2.28;0.47;;;12.20;99.90;;;;;;4963231;28;20047;-74
2023/10/29 04:55:05;;;;;;;2.65;0.40;;;12.20;99.90;;;;;;4946258;28;20458;-73
2023/10/29 04:57:30;;;;;;;2.10;0.40;;;12.20;99.90;;;;;;4964765;28;20502;-73
2023/10/29 04:59:56;;;;;;;3.35;0.50;;;12.10;99.90;;;;;;4962012;28;20057;-71
2023/10/29 05:02:22;;;;;;;1.08;0.30;;;12.10;99.90;;;;;;4943741;28;20051;-72
2023/10/29 05:04:51;;;;;;;2.97;0.85;;;12.10;99.90;;;;;;4961538;28;20455;-71
2023/10/29 05:07:17;;;;;;;4.13;0.63;;;12.10;99.90;;;;;;4945659;28;20078;-71
2023/10/29 05:09:43;;;;;;;4.13;0.68;;;12.00;99.90;;;;;;4964713;28;20066;-71
2023/10/29 05:12:09;;;;;;;3.60;0.90;;;12.10;99.90;;;;;;4964808;28;20072;-71
2023/10/29 05:14:34;;;;;;;2.80;0.50;;;12.10;99.90;;;;;;4962499;28;20038;-72
2023/10/29 05:17:00;;;;;;;4.68;0.60;;;12.00;99.90;;;;;;4961486;28;20126;-73
2023/10/29 05:19:26;;;;;;;2.25;0.63;;;12.10;99.90;;;;;;4963054;28;20043;-73
2023/10/29 05:21:52;;;;;;;2.97;0.60;;;12.10;99.90;;;;;;4961357;28;20043;-69
2023/10/29 05:24:17;;;;;;;3.72;0.70;;;11.90;99.90;;;;;;4960999;28;20047;-73
2023/10/29 05:26:43;;;;;;;2.13;0.60;;;11.80;99.90;;;;;;4963947;28;20499;-67
2023/10/29 05:29:09;;;;;;;1.73;0.40;;;11.90;99.90;;;;;;4961955;28;20050;-71
2023/10/29 05:31:34;;;;;;;2.83;0.60;;;11.80;99.90;;;;;;4962456;28;20130;-77
2023/10/29 05:34:01;;;;;;;2.78;0.40;;;11.80;99.90;;;;;;4964721;28;20035;-74
2023/10/29 05:36:27;;;;;;;1.63;0.40;;;11.70;99.90;;;;;;4964481;28;20494;-74
2023/10/29 05:38:52;;;;;;;3.13;0.47;;;11.70;99.90;;;;;;4961190;28;20108;-71
2023/10/29 05:41:18;;;;;;;2.22;0.57;;;11.70;99.90;;;;;;4961373;28;20051;-70
2023/10/29 05:43:44;;;;;;;1.60;0.40;;;11.60;99.90;;;;;;4961555;28;20054;-73
2023/10/29 05:46:13;;;;;;;2.83;0.60;;;11.60;99.90;;;;;;4946671;28;20410;-71
2023/10/29 05:48:39;;;;;;;2.63;0.57;;;11.60;99.90;;;;;;4964081;28;20058;-71
2023/10/29 05:51:05;;;;;;;2.90;0.50;;;11.70;99.90;;;;;;4955423;28;20051;-70
2023/10/29 05:53:30;;;;;;;2.13;0.70;;;11.50;99.90;;;;;;4959966;28;20059;-73
2023/10/29 05:55:56;;;;;;;3.67;0.57;;;11.50;99.90;;;;;;4944086;28;20479;-72
2023/10/29 05:58:24;;;;;;;3.80;0.63;;;11.70;99.90;;;;;;4960214;28;20047;-73
2023/10/29 06:00:50;;;;;;;3.67;0.68;;;11.60;99.90;;;;;;4960341;28;20051;-70
2023/10/29 06:03:16;;;;;;;2.95;0.77;;;11.60;99.90;;;;;;4962159;28;20185;-73
2023/10/29 06:05:41;;;;;;;4.70;0.82;;;11.60;99.90;;;;;;4960641;28;20118;-72
2023/10/29 06:08:07;;;;;;;2.95;0.90;;;11.60;99.90;;;;;;4960704;28;20122;-72
2023/10/29 06:10:33;;;;;;;3.30;0.57;;;11.60;99.90;;;;;;4963301;28;20490;-74
2023/10/29 06:13:02;;;;;;;3.45;0.80;;;11.60;99.90;;;;;;4941797;28;20077;-74
2023/10/29 06:15:27;;;;;;;5.10;0.70;;;11.70;99.90;;;;;;4966864;28;20523;-78
2023/10/29 06:17:56;;;;;;;2.63;0.70;;;11.70;99.90;;;;;;4960349;28;20126;-71
2023/10/29 06:20:22;;;;;;;2.20;0.50;;;11.70;99.90;;;;;;4960949;28;20043;-76
2023/10/29 06:22:48;;;;;;;3.00;0.60;;;11.70;99.90;;;;;;4962629;28;20058;-73
2023/10/29 06:25:15;;;;;;;6.72;0.70;;;11.60;99.90;;;;;;4963209;28;20046;-71
2023/10/29 06:27:41;;;;;;;8.05;1.00;;;11.70;99.90;;;;;;4943655;28;20102;-71
2023/10/29 06:30:08;;;;;;;6.35;0.88;;;11.60;99.90;;;;;;4961019;28;20502;-70
2023/10/29 06:32:34;;;;;;;3.80;0.90;;;11.60;99.90;;;;;;4960335;28;20537;-69
2023/10/29 06:34:59;;;;;;;2.80;0.90;;;11.70;99.90;;;;;;4963305;28;20039;-71
2023/10/29 06:37:25;;;;;;;8.55;0.90;;;11.70;99.90;;;;;;4958261;28;20098;-73
2023/10/29 06:39:51;;;;;;;5.40;0.95;;;11.70;99.90;;;;;;4961891;28;20054;-70
2023/10/29 06:42:17;;;;;;;3.38;0.70;;;11.70;99.90;;;;;;4963126;28;20125;-71
2023/10/29 06:44:43;;;;;;;5.07;0.80;;;11.70;99.90;;;;;;4957574;28;20122;-70
2023/10/29 06:47:09;;;;;;;11.15;1.10;;;11.70;99.90;;;;;;4963084;28;20039;-72
2023/10/29 06:49:34;;;;;;;6.10;0.60;;;11.90;99.90;;;;;;4962918;28;20051;-70
2023/10/29 06:52:00;;;;;;;5.93;0.98;;;11.90;99.90;;;;;;4962152;28;20502;-71
2023/10/29 06:54:25;;;;;;;7.15;0.90;;;11.90;99.90;;;;;;4962867;28;20070;-70
2023/10/29 06:56:51;;;;;;;4.53;0.60;;;12.00;99.90;;;;;;4962843;28;20078;-71
2023/10/29 06:59:18;;;;;;;2.65;0.75;;;11.90;99.90;;;;;;4959867;28;20077;-70
2023/10/29 07:01:44;;;;;;;7.15;0.90;;;12.10;99.90;;;;;;4961291;28;20039;-69
2023/10/29 07:04:09;;;;;;;6.68;0.90;;;11.90;99.90;;;;;;4961605;28;20061;-74
2023/10/29 07:06:35;;;;;;;4.05;0.80;;;11.90;99.90;;;;;;4942520;29;20518;-75
2023/10/29 07:09:01;;;;;;;6.18;1.00;;;11.90;99.90;;;;;;4959579;28;20376;-72
2023/10/29 07:11:29;;;;;;;4.00;0.82;;;11.90;99.90;;;;;;4959166;28;20165;-71
2023/10/29 07:13:55;;;;;;;5.85;0.70;;;12.20;99.90;;;;;;4942653;29;20043;-71
2023/10/29 07:16:21;;;;;;;2.60;0.70;;;12.00;99.90;;;;;;4960807;28;20051;-70
2023/10/29 07:18:47;;;;;;;3.70;0.60;;;12.00;99.90;;;;;;4962675;28;20039;-72
2023/10/29 07:21:14;;;;;;;7.18;0.98;;;12.00;99.90;;;;;;4962642;28;20059;-74
2023/10/29 07:23:40;;;;;;;5.20;0.80;;;12.00;99.90;;;;;;4959282;28;20078;-70
2023/10/29 07:26:06;;;;;;;5.65;0.88;;;12.20;99.90;;;;;;4959490;28;20035;-73
2023/10/29 07:28:34;;;;;;;2.63;0.45;;;12.10;99.90;;;;;;4960023;28;20106;-73
2023/10/29 07:31:01;;;;;;;6.22;0.60;;;12.10;99.90;;;;;;4962532;28;20106;-71
2023/10/29 07:33:26;;;;;;;6.18;0.80;;;12.10;99.90;;;;;;4962143;28;20046;-70
2023/10/29 07:35:52;;;;;;;1.80;0.60;;;12.10;99.90;;;;;;4942294;28;20058;-75
2023/10/29 07:38:18;;;;;;;2.65;0.70;;;12.10;99.90;;;;;;4959406;28;20050;-71
2023/10/29 07:40:43;;;;;;;4.18;0.90;;;12.20;99.90;;;;;;4964402;28;20560;-75
2023/10/29 07:43:09;;;;;;;2.05;0.50;;;12.10;99.90;;;;;;4941940;29;20147;-72
2023/10/29 07:45:35;;;;;;;2.30;0.55;;;12.10;99.90;;;;;;4959607;28;20122;-71
2023/10/29 07:48:01;;;;;;;3.75;0.65;;;12.30;99.90;;;;;;4962361;28;20087;-69
2023/10/29 07:50:27;;;;;;;4.25;0.70;;;12.50;99.90;;;;;;4961294;28;20078;-72
2023/10/29 07:52:52;;;;;;;4.38;0.70;;;12.30;99.90;;;;;;4963056;28;20071;-74
2023/10/29 07:55:19;;;;;;;2.88;0.57;;;12.20;99.90;;;;;;4965737;28;20039;-75
2023/10/29 07:57:44;;;;;;;4.53;0.80;;;12.20;99.90;;;;;;4965907;28;20046;-71
2023/10/29 08:00:13;;;;;;;1.50;0.50;;;12.30;99.90;;;;;;4964085;28;20057;-70
2023/10/29 08:02:39;;;;;;;3.15;0.70;;;12.30;99.90;;;;;;4944915;29;20066;-72
2023/10/29 08:05:05;;;;;;;4.90;0.60;;;12.30;99.90;;;;;;4963503;28;20146;-75
2023/10/29 08:07:31;;;;;;;3.33;0.68;;;12.30;99.90;;;;;;4965818;28;20046;-77
2023/10/29 08:09:57;;;;;;;2.45;0.50;;;12.30;99.90;;;;;;4965853;28;20050;-73
2023/10/29 08:12:26;;;;;;;9.45;1.00;;;12.30;99.90;;;;;;4957986;28;20078;-74
2023/10/29 08:14:52;;;;;;;3.78;0.70;;;12.40;99.90;;;;;;4965792;28;20039;-73
2023/10/29 08:17:18;;;;;;;7.60;1.10;;;12.40;99.90;;;;;;4964904;28;20054;-72
2023/10/29 08:19:47;;;;;;;4.55;1.10;;;12.50;99.90;;;;;;4962497;28;20047;-75
2023/10/29 08:22:16;;;;;;;5.47;0.85;;;12.50;99.90;;;;;;4962046;28;20063;-74
2023/10/29 08:24:41;;;;;;;10.00;1.00;;;12.50;99.90;;;;;;4949975;28;20130;-73
2023/10/29 08:27:07;;;;;;;5.43;0.75;;;12.60;99.90;;;;;;4965719;28;20122;-72
2023/10/29 08:29:38;;;;;;;8.35;1.40;;;12.60;99.90;;;;;;4964128;28;20075;-72
2023/10/29 08:32:04;;;;;;;6.97;0.90;;;12.70;99.90;;;;;;4962359;28;20098;-74
2023/10/29 08:34:30;;;;;;;10.55;1.00;;;12.70;99.90;;;;;;4962438;28;20158;-71
2023/10/29 08:36:56;;;;;;;4.53;0.80;;;12.80;99.90;;;;;;4959743;28;20126;-74
2023/10/29 08:39:23;;;;;;;3.25;0.68;;;12.80;99.90;;;;;;4965199;28;20114;-73
2023/10/29 08:41:49;;;;;;;4.38;0.90;;;12.80;99.90;;;;;;4963488;28;20046;-77
2023/10/29 08:44:14;;;;;;;8.00;0.90;;;12.80;99.90;;;;;;4946249;28;20050;-71
2023/10/29 08:46:43;;;;;;;4.88;0.85;;;12.80;99.90;;;;;;4965461;28;20113;-72
2023/10/29 08:49:08;;;;;;;6.65;1.40;;;12.80;99.90;;;;;;4954220;28;20074;-70
2023/10/29 08:51:34;;;;;;;8.80;0.95;;;12.90;99.90;;;;;;4964510;28;20093;-71
2023/10/29 08:54:02;;;;;;;4.55;0.90;;;13.10;99.90;;;;;;4944166;28;20058;-71
2023/10/29 08:56:29;;;;;;;5.93;0.93;;;13.30;99.90;;;;;;4963994;28;20509;-78
2023/10/29 08:58:55;;;;;;;4.97;1.05;;;13.20;99.90;;;;;;4961444;28;20047;-70
2023/10/29 09:01:20;;;;;;;7.25;1.10;;;13.30;99.90;;;;;;4964171;28;20054;-71
2023/10/29 09:03:46;;;;;;;3.05;0.73;;;13.30;99.90;;;;;;4961837;28;20134;-74
2023/10/29 09:06:12;;;;;;;8.18;1.10;;;13.30;99.90;;;;;;4963214;28;20051;-74
2023/10/29 09:08:38;;;;;;;4.65;0.90;;;13.20;99.90;;;;;;4964372;28;20046;-72
2023/10/29 09:11:04;;;;;;;5.70;1.05;;;13.20;99.90;;;;;;4943099;29;20043;-74
2023/10/29 09:13:30;;;;;;;5.53;0.77;;;13.20;99.90;;;;;;4969773;28;20403;-70
2023/10/29 09:15:57;;;;;;;5.63;1.15;;;13.20;99.90;;;;;;4962389;28;20055;-73
2023/10/29 09:18:23;;;;;;;5.05;0.88;;;13.20;99.90;;;;;;4959637;28;20442;-75
2023/10/29 09:20:50;;;;;;;13.02;1.00;;;13.30;99.90;;;;;;4962517;28;20177;-78
2023/10/29 09:23:16;;;;;;;6.13;0.95;;;13.40;99.90;;;;;;4960877;28;20117;-70
2023/10/29 09:25:45;;;;;;;6.88;0.85;;;13.60;99.90;;;;;;4966560;28;20043;-77
2023/10/29 09:28:11;;;;;;;4.75;0.80;;;13.70;99.90;;;;;;4964505;28;20065;-70
2023/10/29 09:30:41;;;;;;;6.60;1.00;;;13.70;99.90;;;;;;4962306;28;20050;-72
2023/10/29 09:33:08;;;;;;;6.90;0.88;;;13.70;99.90;;;;;;4961054;28;20058;-70
2023/10/29 09:35:37;;;;;;;6.20;0.70;;;13.90;99.90;;;;;;4961435;28;20510;-70
2023/10/29 09:38:03;;;;;;;2.63;0.60;;;13.90;99.90;;;;;;4963665;28;20047;-72
2023/10/29 09:40:29;;;;;;;5.82;0.70;;;13.90;99.90;;;;;;4930915;28;20414;-73
2023/10/29 09:42:59;;;;;;;7.13;1.88;;;14.00;99.90;;;;;;4961559;28;20047;-74
2023/10/29 09:45:26;;;;;;;4.45;0.80;;;14.10;99.90;;;;;;4962203;28;20051;-74
2023/10/29 09:47:58;;;;;;;5.75;0.57;;;14.20;99.90;;;;;;4962321;28;20050;-75
2023/10/29 09:50:25;;;;;;;4.70;0.82;;;14.10;99.90;;;;;;4960754;28;20055;-74
2023/10/29 09:52:55;;;;;;;4.05;0.98;;;14.10;99.90;;;;;;4943617;28;20063;-72
2023/10/29 09:55:22;;;;;;;12.15;1.20;;;14.00;99.90;;;;;;4960644;28;20039;-69
2023/10/29 09:57:49;;;;;;;7.22;1.08;;;14.30;99.90;;;;;;4960601;28;20105;-71
2023/10/29 10:00:16;;;;;;;5.82;0.80;;;14.30;99.90;;;;;;4963442;28;20054;-74
2023/10/29 10:02:50;;;;;;;4.07;0.95;;;14.30;99.90;;;;;;4963472;28;20054;-76
2023/10/29 10:05:19;;;;;;;8.10;1.38;;;14.30;99.90;;;;;;4961494;28;20082;-72
2023/10/29 10:07:44;;;;;;;4.30;0.70;;;14.30;99.90;;;;;;4942759;29;20035;-71
2023/10/29 10:10:10;;;;;;;4.57;0.88;;;14.30;99.90;;;;;;4961153;28;20415;-72
2023/10/29 10:12:50;;;;;;;7.13;1.00;;;14.40;99.90;;;;;;4963081;28;20055;-72
2023/10/29 10:15:17;;;;;;;6.93;0.82;;;14.40;99.90;;;;;;4962506;28;20081;-76
2023/10/29 10:17:48;;;;;;;5.32;0.82;;;14.50;99.90;;;;;;4956913;28;20160;-69
2023/10/29 10:20:16;;;;;;;6.43;1.00;;;14.40;99.90;;;;;;4963682;28;20490;-71
2023/10/29 10:22:43;;;;;;;4.95;0.90;;;14.40;99.90;;;;;;4919295;29;20498;-69
2023/10/29 10:25:18;;;;;;;4.28;0.90;;;14.50;99.90;;;;;;4942833;29;20066;-77
2023/10/29 10:27:48;;;;;;;6.90;1.00;;;14.60;99.90;;;;;;4962526;28;20549;-76
2023/10/29 10:30:27;;;;;;;5.85;1.10;;;14.50;99.90;;;;;;4945750;28;20079;-79
2023/10/29 10:33:06;;;;;;;4.40;1.10;;;14.40;99.90;;;;;;4935028;29;20410;-72
2023/10/29 10:35:38;;;;;;;6.55;1.08;;;14.40;99.90;;;;;;4960361;28;20167;-71
2023/10/29 10:38:05;;;;;;;7.45;0.93;;;14.30;99.90;;;;;;4945763;28;20059;-70
2023/10/29 10:40:31;;;;;;;7.50;0.90;;;14.40;99.90;;;;;;4945929;28;20055;-72
2023/10/29 10:42:57;;;;;;;7.82;1.35;;;14.50;99.90;;;;;;4942635;28;20066;-71
2023/10/29 10:45:26;;;;;;;6.18;1.05;;;14.40;99.90;;;;;;4959672;28;20039;-73
2023/10/29 10:47:56;;;;;;;7.60;1.08;;;14.40;99.90;;;;;;4960244;28;20137;-73
2023/10/29 10:50:25;;;;;;;7.07;1.02;;;14.40;99.90;;;;;;4942811;29;20055;-72
2023/10/29 10:52:52;;;;;;;8.43;1.33;;;14.50;99.90;;;;;;4960089;28;20087;-70
2023/10/29 10:55:22;;;;;;;5.97;0.95;;;14.50;99.90;;;;;;4965666;28;20538;-70
2023/10/29 10:57:51;;;;;;;10.95;1.35;;;14.50;99.90;;;;;;4962651;28;20118;-73
2023/10/29 11:00:19;;;;;;;4.82;0.88;;;14.50;99.90;;;;;;4936800;28;20410;-80
2023/10/29 11:02:45;;;;;;;6.93;1.20;;;14.50;99.90;;;;;;4962589;28;20046;-71
2023/10/29 11:05:13;;;;;;;8.10;1.33;;;14.40;99.90;;;;;;4961173;28;20042;-74
2023/10/29 11:07:41;;;;;;;10.80;1.35;;;14.40;99.90;;;;;;4959651;28;20042;-70
2023/10/29 11:10:11;;;;;;;8.10;1.13;;;14.40;99.90;;;;;;4960328;28;20043;-74
2023/10/29 11:12:38;;;;;;;6.97;1.17;;;14.40;99.90;;;;;;4959138;28;20065;-70
2023/10/29 11:15:20;;;;;;;8.07;1.30;;;14.30;99.90;;;;;;4959926;28;20047;-72
2023/10/29 11:17:50;;;;;;;8.60;1.25;;;14.40;99.90;;;;;;4953071;28;20059;-71
2023/10/29 11:20:45;;;;;;;12.90;1.77;;;14.40;99.90;;;;;;4959274;28;20467;-71
2023/10/29 11:23:23;;;;;;;11.77;1.42;;;14.50;99.90;;;;;;4964654;28;20140;-71
2023/10/29 11:25:49;;;;;;;10.13;1.70;;;14.60;99.90;;;;;;4963994;28;20047;-79
2023/10/29 11:28:24;;;;;;;8.95;1.45;;;14.60;99.90;;;;;;4946256;29;20051;-73
2023/10/29 11:31:12;;;;;;;10.45;1.55;;;14.50;99.90;;;;;;4955920;28;20088;-71
2023/10/29 11:33:38;;;;;;;9.00;1.33;;;14.60;99.90;;;;;;4964993;28;20429;-73
2023/10/29 11:36:33;;;;;;;6.05;1.20;;;14.80;99.90;;;;;;4966388;28;20490;-72
2023/10/29 11:39:22;;;;;;;11.93;1.50;;;15.00;99.90;;;;;;4963193;28;20039;-71
2023/10/29 11:41:49;;;;;;;10.40;1.42;;;14.70;99.90;;;;;;4964976;28;20043;-76
2023/10/29 11:44:27;;;;;;;10.10;1.42;;;14.80;99.90;;;;;;4961543;28;20058;-74
2023/10/29 11:47:01;;;;;;;9.50;1.40;;;14.70;99.90;;;;;;4953923;28;20122;-69
2023/10/29 11:49:28;;;;;;;7.97;1.40;;;14.70;99.90;;;;;;4962860;28;20087;-73
2023/10/29 11:52:03;;;;;;;5.97;1.33;;;14.60;99.90;;;;;;4964424;28;20054;-70
2023/10/29 11:54:32;;;;;;;14.80;1.63;;;14.50;99.90;;;;;;4965832;28;20039;-78
2023/10/29 11:56:59;;;;;;;7.75;1.33;;;14.40;99.90;;;;;;4964525;28;20602;-72
2023/10/29 11:59:25;;;;;;;7.15;1.80;;;14.50;99.90;;;;;;4945503;29;20125;-72
2023/10/29 12:01:52;;;;;;;8.88;1.65;;;14.40;99.90;;;;;;4945493;29;20055;-70
2023/10/29 12:04:17;;;;;;;7.28;1.45;;;14.40;99.90;;;;;;4961412;28;20035;-71
2023/10/29 12:06:45;;;;;;;10.65;1.52;;;14.40;99.90;;;;;;4966186;28;20053;-70
2023/10/29 12:09:22;;;;;;;7.22;1.20;;;14.40;99.90;;;;;;4964437;28;20446;-74
2023/10/29 12:11:52;;;;;;;9.60;1.38;;;14.30;99.90;;;;;;4943188;29;20051;-70
2023/10/29 12:14:46;;;;;;;6.40;1.35;;;14.30;99.90;;;;;;4963301;28;20094;-71
2023/10/29 12:17:14;;;;;;;9.60;2.10;;;14.20;99.90;;;;;;4964458;28;20054;-75
2023/10/29 12:19:41;;;;;;;9.07;1.38;;;14.10;99.90;;;;;;4965158;28;20122;-77
2023/10/29 12:22:20;;;;;;;10.30;1.67;;;14.10;99.90;;;;;;4947820;28;20059;-75
2023/10/29 12:24:52;;;;;;;8.77;1.40;;;14.10;99.90;;;;;;4955588;28;20407;-71
2023/10/29 12:27:24;;;;;;;11.25;1.60;;;14.10;99.90;;;;;;4962776;28;20051;-72
2023/10/29 12:29:50;;;;;;;10.35;1.42;;;14.10;99.90;;;;;;4955307;28;20497;-73
2023/10/29 12:32:17;;;;;;;11.10;1.48;;;14.10;99.90;;;;;;4953857;28;20039;-70
2023/10/29 12:34:57;;;;;;;7.55;1.20;;;14.10;99.90;;;;;;4967295;28;20104;-71
2023/10/29 12:37:25;;;;;;;11.02;1.38;;;14.00;99.90;;;;;;4944862;29;20070;-75
2023/10/29 12:39:52;;;;;;;10.55;1.80;;;14.00;99.90;;;;;;4946836;28;20073;-72
2023/10/29 12:42:19;;;;;;;11.70;1.60;;;14.00;99.90;;;;;;4966362;28;20134;-69
2023/10/29 12:44:54;;;;;;;8.57;1.30;;;14.00;99.90;;;;;;4964053;28;20046;-71